• Join FlightAware (Why Join?)
  • Login
  • US Flag 
03:43PM EDT


 

Airport Tracker/Info


-or-


 

Live Flight TrackerFlight Track Log ✈ SKW4632 ✈ 12-Aug-2013 ✈ KMSO - KSLC

Flight Track Log - Related Links

Times and Time Zones

All times are in EDT time to prevent confusion due to time zone crossing. See the SKW4632 flight status page for this flight to view local times or setup timezone preferences in your user account.

Time Position Orientation Groundspeed Altitude Reporting Facility
EDT Latitude Longitude Course Direction KTS MPH feet Rate Location/Type
03:13PM 46.9994 -114.2425 309° West 266 306 5,700  Level Salt Lake Center
03:14PM 46.6546 -113.9905 180° South  Level Estimated
03:14PM 47.0425 -114.3450 302° West 283 326 8,500  Level Salt Lake Center
03:15PM 46.5674 -113.9574 180° South  Level Estimated
03:15PM 46.9869 -114.4156 221° Southwest 284 327 10,900  Level Salt Lake Center
03:16PM 46.4859 -114.0133 205° Southwest  Level FlightAware Approximate
03:16PM 46.8992 -114.4042 175° South 299 344 12,500  Level Salt Lake Center
03:17PM 46.3988 -113.9790 180° South  Level Estimated
03:17PM 46.8042 -114.3867 173° South 322 371 14,100  Level Salt Lake Center
03:18PM 46.7100 -114.3714 174° South 340 391 15,600 1,620 Climbing Salt Lake Center
03:19PM 46.6044 -114.3531 173° South 356 410 17,500 1,620 Climbing Salt Lake Center
03:20PM 46.5092 -114.3347 172° South 348 400 19,000 1,320 Climbing Salt Lake Center
03:21PM 46.4108 -114.3194 174° South 356 410 20,300 1,200 Climbing Salt Lake Center
03:22PM 46.3022 -114.2989 173° South 364 419 21,500 1,020 Climbing Salt Lake Center
03:23PM 46.2014 -114.2825 174° South 367 422 22,500 960 Climbing Salt Lake Center
03:24PM 46.0992 -114.2661 174° South 371 427 23,500 840 Climbing Salt Lake Center
03:25PM 45.9958 -114.2481 173° South 375 432 24,300 660 Climbing Salt Lake Center
03:26PM 45.8900 -114.2306 173° South 382 440 24,900 600 Climbing Salt Lake Center
03:27PM 45.7825 -114.2103 173° South 388 447 25,600 600 Climbing Salt Lake Center
03:28PM 45.6589 -114.1458 160° South 396 456 26,200 660 Climbing Salt Lake Center
03:29PM 45.5631 -114.0936 159° South 399 459 27,000 540 Climbing Salt Lake Center
03:31PM 45.4585 -114.0325 158° South  Level FlightAware Approximate
03:31PM 45.3558 -113.9425 158° South 408 470 28,000  Level Salt Lake Center
03:32PM 45.2439 -113.8369 146° Southeast 424 488 28,200 480 Climbing Salt Lake Center
03:34PM 45.1492 -113.7464 146° Southeast 429 494 29,000 360 Climbing Salt Lake Center
03:35PM 45.0403 -113.6411 146° Southeast 427 491 29,000 420 Level Salt Lake Center
03:36PM 44.9436 -113.5508 147° Southeast 431 496 29,900 780 Climbing Salt Lake Center
03:37PM 44.8319 -113.4619 151° Southeast 425 489 30,700 480 Climbing Salt Lake Center
03:38PM 44.7258 -113.4156 163° South 425 489 31,000 120 Climbing Salt Lake Center
03:39PM 44.6000 -113.3628 163° South 421 484 31,000  Level Salt Lake Center
03:40PM 44.4883 -113.3156 163° South 434 499 31,000  Level Salt Lake Center
03:41PM 44.3558 -113.2594 163° South 445 512 31,000  Level Salt Lake Center
03:42PM 44.2397 -113.2103 163° South 452 520 31,000  Level Salt Lake Center
03:43PM 44.1042 -113.1558 164° South 454 522 31,000  Level Salt Lake Center
03:44PM 43.9858 -113.1286 171° South 452 520 31,000  Level Salt Lake Center
03:45PM 43.8672 -113.1022 171° South 452 520 31,000  Level Salt Lake Center
03:46PM 43.7286 -113.0714 171° South 453 521 31,000  Level Salt Lake Center
03:47PM 43.6106 -113.0458 171° South 450 518 31,000  Level Salt Lake Center
03:48PM 43.4725 -113.0139 170° South 450 518 31,000  Level Salt Lake Center
03:49PM 43.3544 -112.9797 168° South 453 521 31,000  Level Salt Lake Center
03:50PM 43.2169 -112.9422 169° South 451 519 31,000  Level Salt Lake Center
03:51PM 43.0986 -112.9072 168° South 454 522 31,000  Level Salt Lake Center
03:52PM 42.9625 -112.8697 169° South 450 518 31,000  Level Salt Lake Center
03:53PM 42.8456 -112.8389 169° South 448 516 31,000  Level Salt Lake Center
03:54PM 42.7083 -112.8031 169° South 449 517 31,000  Level Salt Lake Center
03:55PM 42.5914 -112.7711 169° South 448 516 31,000  Level Salt Lake Center
03:56PM 42.4692 -112.7383 169° South 450 518 31,000  Level Salt Lake Center
03:57PM 42.3464 -112.7053 169° South 449 517 31,000 -720 Level Salt Lake Center
03:58PM 42.1997 -112.6653 169° South 450 518 29,600 -2,220 Descending Salt Lake Center
03:59PM 42.0758 -112.6331 169° South 454 522 26,500 -3,000 Descending Salt Lake Center
04:00PM 41.9553 -112.6000 168° South 446 513 23,500 -2,940 Descending Salt Lake Center
04:01PM 41.8325 -112.5692 169° South 449 517 20,500 -2,820 Descending Salt Lake Center
04:02PM 41.7150 -112.5378 169° South 440 506 17,700 -2,580 Descending Salt Lake Center
04:03PM 41.6225 -112.5069 166° South 408 470 16,000 -1,080 Descending Salt Lake Center
04:04PM 41.5425 -112.4822 167° South 326 375 16,000 -420 Level Salt Lake Center
04:05PM 41.4681 -112.4186 147° Southeast 318 366 15,200 -1,020 Descending Salt Lake Center
04:06PM 41.4092 -112.3356 133° Southeast 312 359 14,000 -1,200 Descending Salt Lake Center
04:07PM 41.3489 -112.2561 135° Southeast 308 354 12,800 -1,200 Descending Salt Lake Center
04:08PM 41.2931 -112.1781 134° Southeast 311 358 11,700 -1,080 Descending Salt Lake Center
04:09PM 41.2642 -112.1425 137° Southeast 310 357 11,200 -600 Descending Salt Lake Center
04:09PM 41.2203 -112.0800 133° Southeast 304 350 11,000 -180 Descending Salt Lake Center
04:10PM 41.1733 -112.0164 134° Southeast 293 337 11,000 -840 Level Salt Lake Center
04:11PM 41.1314 -111.9883 153° Southeast 288 331 9,800 -1,740 Descending Salt Lake Center
04:11PM 41.0872 -111.9717 164° South 284 327 8,900 -1,440 Descending Salt Lake Center
04:12PM 41.0294 -111.9631 174° South 275 316 8,000 -1,260 Descending Salt Lake Center
04:13PM 40.9831 -111.9622 179° South 275 316 7,100 -900 Descending Salt Lake Center
04:14PM 40.9019 -111.9622 180° South 237 273 6,400 -960 Descending Salt Lake Center
04:15PM 40.8500 -111.9622 180° South 182 209 5,200 -960 Descending Salt Lake Center
04:16PM 40.8086 -111.9619 180° South 149 171 4,500 -720 Descending Salt Lake Center